Terminal Aerodrome Forecast
Issued by NWS Sterling, VA

Current Version | Previous Version | Text Only | Print | Product List | Glossary Off
Versions: 1 2 3 4 5 6 7 8 9 10 11 12 13 14 15 16 17 18 19 20 21 22 23 24 25

000
FTUS41 KLWX 132000 AAB
TAFIAD
TAF AMD
KIAD 132034Z 1321/1424 22013KT P6SM VCTS SCT050CB BKN080
     FM140000 20009KT P6SM VCTS BKN080CB
     FM140500 26006KT P6SM VCTS BKN050CB
     FM140600 VRB03KT P6SM BKN060
     FM141800 23009KT 3SM +SHRA VCTS BKN060CB=

USA.gov is the U.S. government's official web portal to all federal, state and local government web resources and services.